sensor_id;sensor_type;location;lat;lon;timestamp;temperature;humidity
678;DHT22;321;48.814;9.132;2023-02-28T00:00:31;0.30;92.50
678;DHT22;321;48.814;9.132;2023-02-28T00:02:57;0.10;92.50
678;DHT22;321;48.814;9.132;2023-02-28T00:05:25;0.50;92.70
678;DHT22;321;48.814;9.132;2023-02-28T00:07:51;0.50;92.40
678;DHT22;321;48.814;9.132;2023-02-28T00:10:19;0.10;92.40
678;DHT22;321;48.814;9.132;2023-02-28T00:12:47;0.20;93.10
678;DHT22;321;48.814;9.132;2023-02-28T00:15:13;0.20;92.70
678;DHT22;321;48.814;9.132;2023-02-28T00:17:38;0.50;92.80
678;DHT22;321;48.814;9.132;2023-02-28T00:20:05;0.20;92.90
678;DHT22;321;48.814;9.132;2023-02-28T00:22:38;0.00;92.80
678;DHT22;321;48.814;9.132;2023-02-28T00:25:04;0.00;93.60
678;DHT22;321;48.814;9.132;2023-02-28T00:27:32;-0.20;93.90
678;DHT22;321;48.814;9.132;2023-02-28T00:29:57;-0.40;94.30
678;DHT22;321;48.814;9.132;2023-02-28T00:32:23;-0.40;94.70
678;DHT22;321;48.814;9.132;2023-02-28T00:34:49;-0.30;95.10
678;DHT22;321;48.814;9.132;2023-02-28T00:37:14;-0.30;94.90
678;DHT22;321;48.814;9.132;2023-02-28T00:39:40;-0.60;95.30
678;DHT22;321;48.814;9.132;2023-02-28T00:42:06;-0.50;95.80
678;DHT22;321;48.814;9.132;2023-02-28T00:44:32;-0.30;95.80
678;DHT22;321;48.814;9.132;2023-02-28T00:46:59;-0.30;95.30
678;DHT22;321;48.814;9.132;2023-02-28T00:49:26;-0.60;95.60
678;DHT22;321;48.814;9.132;2023-02-28T00:51:53;-0.60;96.40
678;DHT22;321;48.814;9.132;2023-02-28T00:54:19;-0.40;96.50
678;DHT22;321;48.814;9.132;2023-02-28T00:56:44;-0.20;96.10
678;DHT22;321;48.814;9.132;2023-02-28T00:59:11;0.00;96.20
678;DHT22;321;48.814;9.132;2023-02-28T01:01:40;-0.10;96.20
678;DHT22;321;48.814;9.132;2023-02-28T01:04:06;-0.40;96.40
678;DHT22;321;48.814;9.132;2023-02-28T01:06:32;-0.40;97.00
678;DHT22;321;48.814;9.132;2023-02-28T01:08:58;-0.30;97.20
678;DHT22;321;48.814;9.132;2023-02-28T01:11:24;-0.30;97.20
678;DHT22;321;48.814;9.132;2023-02-28T01:13:49;-0.20;97.50
678;DHT22;321;48.814;9.132;2023-02-28T01:16:15;-0.40;97.70
678;DHT22;321;48.814;9.132;2023-02-28T01:18:41;-0.50;98.20
678;DHT22;321;48.814;9.132;2023-02-28T01:21:08;-0.10;97.80
678;DHT22;321;48.814;9.132;2023-02-28T01:23:34;-0.30;97.50
678;DHT22;321;48.814;9.132;2023-02-28T01:26:07;-0.50;98.50
678;DHT22;321;48.814;9.132;2023-02-28T01:28:33;-0.40;98.30
678;DHT22;321;48.814;9.132;2023-02-28T01:30:59;-0.20;98.70
678;DHT22;321;48.814;9.132;2023-02-28T01:33:26;0.00;98.30
678;DHT22;321;48.814;9.132;2023-02-28T01:35:58;-0.20;98.30
678;DHT22;321;48.814;9.132;2023-02-28T01:38:24;-0.30;99.00
678;DHT22;321;48.814;9.132;2023-02-28T01:40:50;-0.20;98.90
678;DHT22;321;48.814;9.132;2023-02-28T01:46:04;-0.10;99.30
678;DHT22;321;48.814;9.132;2023-02-28T01:48:33;-0.20;99.10
678;DHT22;321;48.814;9.132;2023-02-28T01:51:05;-0.30;99.20
678;DHT22;321;48.814;9.132;2023-02-28T01:53:41;-0.50;99.90
678;DHT22;321;48.814;9.132;2023-02-28T01:56:10;-0.40;99.90
678;DHT22;321;48.814;9.132;2023-02-28T01:58:37;-0.40;99.90
678;DHT22;321;48.814;9.132;2023-02-28T02:01:03;-0.20;99.90
678;DHT22;321;48.814;9.132;2023-02-28T02:03:30;-0.30;99.90
678;DHT22;321;48.814;9.132;2023-02-28T02:05:56;-0.30;99.90
678;DHT22;321;48.814;9.132;2023-02-28T02:08:24;-0.40;99.90
678;DHT22;321;48.814;9.132;2023-02-28T02:10:54;-0.20;99.90
678;DHT22;321;48.814;9.132;2023-02-28T02:27:59;0.40;99.00
678;DHT22;321;48.814;9.132;2023-02-28T02:36:33;0.20;99.90
678;DHT22;321;48.814;9.132;2023-02-28T02:39:14;0.20;99.90
678;DHT22;321;48.814;9.132;2023-02-28T02:44:20;0.30;99.90
678;DHT22;321;48.814;9.132;2023-02-28T02:46:48;-0.10;99.90
678;DHT22;321;48.814;9.132;2023-02-28T02:49:25;0.00;99.90
678;DHT22;321;48.814;9.132;2023-02-28T02:51:53;-0.20;99.90
678;DHT22;321;48.814;9.132;2023-02-28T02:54:28;-0.10;99.90
678;DHT22;321;48.814;9.132;2023-02-28T02:56:58;0.00;99.90
678;DHT22;321;48.814;9.132;2023-02-28T02:59:25;-0.10;99.90
678;DHT22;321;48.814;9.132;2023-02-28T03:01:56;0.10;99.90
678;DHT22;321;48.814;9.132;2023-02-28T03:07:41;-0.40;99.90
678;DHT22;321;48.814;9.132;2023-02-28T03:10:30;-0.20;99.90
678;DHT22;321;48.814;9.132;2023-02-28T03:13:15;-0.20;99.90
678;DHT22;321;48.814;9.132;2023-02-28T03:22:08;-0.50;99.90
678;DHT22;321;48.814;9.132;2023-02-28T03:27:01;0.00;99.90
678;DHT22;321;48.814;9.132;2023-02-28T03:29:40;0.10;99.90
678;DHT22;321;48.814;9.132;2023-02-28T03:32:17;0.20;99.90
678;DHT22;321;48.814;9.132;2023-02-28T03:35:01;0.30;99.90
678;DHT22;321;48.814;9.132;2023-02-28T03:37:31;-0.10;99.90
678;DHT22;321;48.814;9.132;2023-02-28T03:40:14;-0.10;99.90
678;DHT22;321;48.814;9.132;2023-02-28T03:42:44;-0.20;99.90
678;DHT22;321;48.814;9.132;2023-02-28T03:45:16;-0.30;99.90
678;DHT22;321;48.814;9.132;2023-02-28T03:47:58;-0.10;99.90
678;DHT22;321;48.814;9.132;2023-02-28T03:50:42;0.00;99.90
678;DHT22;321;48.814;9.132;2023-02-28T03:53:28;-0.20;99.90
678;DHT22;321;48.814;9.132;2023-02-28T03:55:59;-0.30;99.90
678;DHT22;321;48.814;9.132;2023-02-28T04:01:08;-0.10;99.90
678;DHT22;321;48.814;9.132;2023-02-28T04:03:36;-0.20;99.90
678;DHT22;321;48.814;9.132;2023-02-28T04:06:03;-0.10;99.90
678;DHT22;321;48.814;9.132;2023-02-28T04:08:29;0.10;99.90
678;DHT22;321;48.814;9.132;2023-02-28T04:11:01;0.20;99.90
678;DHT22;321;48.814;9.132;2023-02-28T04:13:29;0.20;99.90
678;DHT22;321;48.814;9.132;2023-02-28T04:15:55;0.20;99.90
678;DHT22;321;48.814;9.132;2023-02-28T04:18:20;0.00;99.90
678;DHT22;321;48.814;9.132;2023-02-28T04:20:46;0.00;99.90
678;DHT22;321;48.814;9.132;2023-02-28T04:23:11;0.00;99.90
678;DHT22;321;48.814;9.132;2023-02-28T04:25:37;0.20;99.90
678;DHT22;321;48.814;9.132;2023-02-28T04:28:02;0.20;99.90
678;DHT22;321;48.814;9.132;2023-02-28T04:30:28;0.30;99.90
678;DHT22;321;48.814;9.132;2023-02-28T04:32:54;0.30;99.90
678;DHT22;321;48.814;9.132;2023-02-28T04:35:20;0.40;99.90
678;DHT22;321;48.814;9.132;2023-02-28T04:37:45;0.50;99.90
678;DHT22;321;48.814;9.132;2023-02-28T04:40:11;0.40;99.90
678;DHT22;321;48.814;9.132;2023-02-28T04:42:37;0.30;99.90
678;DHT22;321;48.814;9.132;2023-02-28T04:45:04;0.00;99.90
678;DHT22;321;48.814;9.132;2023-02-28T04:47:29;-0.10;99.90
678;DHT22;321;48.814;9.132;2023-02-28T04:49:55;0.20;99.90
678;DHT22;321;48.814;9.132;2023-02-28T04:52:20;0.40;99.90
678;DHT22;321;48.814;9.132;2023-02-28T04:54:46;0.30;99.90
678;DHT22;321;48.814;9.132;2023-02-28T04:57:12;0.30;99.90
678;DHT22;321;48.814;9.132;2023-02-28T04:59:37;0.00;99.90
678;DHT22;321;48.814;9.132;2023-02-28T05:02:03;-0.10;99.90
678;DHT22;321;48.814;9.132;2023-02-28T05:04:33;0.00;99.90
678;DHT22;321;48.814;9.132;2023-02-28T05:07:00;-0.20;99.90
678;DHT22;321;48.814;9.132;2023-02-28T05:09:25;0.10;99.90
678;DHT22;321;48.814;9.132;2023-02-28T05:11:51;0.20;99.90
678;DHT22;321;48.814;9.132;2023-02-28T05:14:17;0.20;99.90
678;DHT22;321;48.814;9.132;2023-02-28T05:16:42;0.20;99.90
678;DHT22;321;48.814;9.132;2023-02-28T05:19:08;0.10;99.90
678;DHT22;321;48.814;9.132;2023-02-28T05:21:42;0.00;99.90
678;DHT22;321;48.814;9.132;2023-02-28T05:24:13;-0.20;99.90
678;DHT22;321;48.814;9.132;2023-02-28T05:26:41;-0.20;99.90
678;DHT22;321;48.814;9.132;2023-02-28T05:29:07;-0.20;99.90
678;DHT22;321;48.814;9.132;2023-02-28T05:31:33;0.00;99.90
678;DHT22;321;48.814;9.132;2023-02-28T05:33:59;0.20;99.90
678;DHT22;321;48.814;9.132;2023-02-28T05:36:25;0.00;99.90
678;DHT22;321;48.814;9.132;2023-02-28T05:38:52;-0.10;99.90
678;DHT22;321;48.814;9.132;2023-02-28T05:41:18;0.00;99.90
678;DHT22;321;48.814;9.132;2023-02-28T05:43:45;0.30;99.90
678;DHT22;321;48.814;9.132;2023-02-28T05:46:11;0.50;99.90
678;DHT22;321;48.814;9.132;2023-02-28T05:48:39;0.50;99.90
678;DHT22;321;48.814;9.132;2023-02-28T05:51:06;0.30;99.90
678;DHT22;321;48.814;9.132;2023-02-28T05:53:32;0.50;99.90
678;DHT22;321;48.814;9.132;2023-02-28T05:55:58;0.60;99.90
678;DHT22;321;48.814;9.132;2023-02-28T05:58:24;0.50;99.90
678;DHT22;321;48.814;9.132;2023-02-28T06:00:58;0.20;99.90
678;DHT22;321;48.814;9.132;2023-02-28T06:03:24;0.30;99.90
678;DHT22;321;48.814;9.132;2023-02-28T06:05:50;0.30;99.90
678;DHT22;321;48.814;9.132;2023-02-28T06:08:16;0.30;99.90
678;DHT22;321;48.814;9.132;2023-02-28T06:10:41;0.30;99.90
678;DHT22;321;48.814;9.132;2023-02-28T06:13:07;0.10;99.90
678;DHT22;321;48.814;9.132;2023-02-28T06:15:33;0.00;99.90
678;DHT22;321;48.814;9.132;2023-02-28T06:17:59;0.00;99.90
678;DHT22;321;48.814;9.132;2023-02-28T06:20:26;0.30;99.90
678;DHT22;321;48.814;9.132;2023-02-28T06:22:55;0.30;99.90
678;DHT22;321;48.814;9.132;2023-02-28T06:25:21;0.10;99.90
678;DHT22;321;48.814;9.132;2023-02-28T06:27:47;0.20;99.90
678;DHT22;321;48.814;9.132;2023-02-28T06:30:14;0.10;99.90
678;DHT22;321;48.814;9.132;2023-02-28T06:32:39;0.20;99.90
678;DHT22;321;48.814;9.132;2023-02-28T06:35:05;0.00;99.90
678;DHT22;321;48.814;9.132;2023-02-28T06:37:32;0.20;99.90
678;DHT22;321;48.814;9.132;2023-02-28T06:39:57;0.20;99.90
678;DHT22;321;48.814;9.132;2023-02-28T06:42:24;0.20;99.90
678;DHT22;321;48.814;9.132;2023-02-28T06:44:54;0.10;99.90
678;DHT22;321;48.814;9.132;2023-02-28T06:47:20;-0.20;99.90
678;DHT22;321;48.814;9.132;2023-02-28T06:49:45;-0.20;99.90
678;DHT22;321;48.814;9.132;2023-02-28T06:52:11;0.10;99.90
678;DHT22;321;48.814;9.132;2023-02-28T06:54:37;0.30;99.90
678;DHT22;321;48.814;9.132;2023-02-28T06:57:03;0.50;99.90
678;DHT22;321;48.814;9.132;2023-02-28T06:59:28;0.30;99.90
678;DHT22;321;48.814;9.132;2023-02-28T07:01:54;0.50;99.90
678;DHT22;321;48.814;9.132;2023-02-28T07:04:20;0.80;99.90
678;DHT22;321;48.814;9.132;2023-02-28T07:06:46;0.80;99.90
678;DHT22;321;48.814;9.132;2023-02-28T07:09:11;0.80;99.90
678;DHT22;321;48.814;9.132;2023-02-28T07:11:37;0.80;99.90
678;DHT22;321;48.814;9.132;2023-02-28T07:14:03;0.60;99.90
678;DHT22;321;48.814;9.132;2023-02-28T07:16:28;0.50;99.90
678;DHT22;321;48.814;9.132;2023-02-28T07:18:54;0.50;99.90
678;DHT22;321;48.814;9.132;2023-02-28T07:21:20;0.50;99.90
678;DHT22;321;48.814;9.132;2023-02-28T07:23:46;0.90;99.90
678;DHT22;321;48.814;9.132;2023-02-28T07:26:14;0.90;99.90
678;DHT22;321;48.814;9.132;2023-02-28T07:28:41;1.20;99.90
678;DHT22;321;48.814;9.132;2023-02-28T07:31:08;1.10;99.90
678;DHT22;321;48.814;9.132;2023-02-28T07:33:34;0.70;99.90
678;DHT22;321;48.814;9.132;2023-02-28T07:36:05;0.70;99.90
678;DHT22;321;48.814;9.132;2023-02-28T07:38:34;0.50;99.90
678;DHT22;321;48.814;9.132;2023-02-28T07:41:01;0.90;99.90
678;DHT22;321;48.814;9.132;2023-02-28T07:43:29;0.90;99.90
678;DHT22;321;48.814;9.132;2023-02-28T07:45:55;0.80;99.90
678;DHT22;321;48.814;9.132;2023-02-28T07:48:20;0.90;99.90
678;DHT22;321;48.814;9.132;2023-02-28T07:50:54;0.90;99.90
678;DHT22;321;48.814;9.132;2023-02-28T07:53:20;0.60;99.90
678;DHT22;321;48.814;9.132;2023-02-28T07:55:46;0.60;99.90
678;DHT22;321;48.814;9.132;2023-02-28T07:58:11;0.80;99.90
678;DHT22;321;48.814;9.132;2023-02-28T08:00:37;1.00;99.90
678;DHT22;321;48.814;9.132;2023-02-28T08:03:03;0.70;99.90
678;DHT22;321;48.814;9.132;2023-02-28T08:05:29;0.60;99.90
678;DHT22;321;48.814;9.132;2023-02-28T08:07:55;0.90;99.90
678;DHT22;321;48.814;9.132;2023-02-28T08:10:21;1.20;99.90
678;DHT22;321;48.814;9.132;2023-02-28T08:12:46;1.10;99.90
678;DHT22;321;48.814;9.132;2023-02-28T08:15:12;0.90;99.90
678;DHT22;321;48.814;9.132;2023-02-28T08:17:37;1.00;99.90
678;DHT22;321;48.814;9.132;2023-02-28T08:20:03;0.90;99.90
678;DHT22;321;48.814;9.132;2023-02-28T08:22:29;1.00;99.90
678;DHT22;321;48.814;9.132;2023-02-28T08:24:55;1.10;99.90
678;DHT22;321;48.814;9.132;2023-02-28T08:27:20;1.50;99.90
678;DHT22;321;48.814;9.132;2023-02-28T08:29:46;1.20;99.90
678;DHT22;321;48.814;9.132;2023-02-28T08:32:11;1.50;99.90
678;DHT22;321;48.814;9.132;2023-02-28T08:34:39;1.30;99.90
678;DHT22;321;48.814;9.132;2023-02-28T08:37:05;1.40;99.90
678;DHT22;321;48.814;9.132;2023-02-28T08:39:34;1.10;99.90
678;DHT22;321;48.814;9.132;2023-02-28T08:42:00;1.10;99.90
678;DHT22;321;48.814;9.132;2023-02-28T08:44:25;1.30;99.90
678;DHT22;321;48.814;9.132;2023-02-28T08:46:51;1.20;99.90
678;DHT22;321;48.814;9.132;2023-02-28T08:49:16;0.90;99.90
678;DHT22;321;48.814;9.132;2023-02-28T08:51:42;0.90;99.90
678;DHT22;321;48.814;9.132;2023-02-28T08:54:08;1.10;99.90
678;DHT22;321;48.814;9.132;2023-02-28T08:56:33;1.20;99.90
678;DHT22;321;48.814;9.132;2023-02-28T08:58:59;1.30;99.90
678;DHT22;321;48.814;9.132;2023-02-28T09:01:27;1.30;99.90
678;DHT22;321;48.814;9.132;2023-02-28T09:03:54;1.50;99.90
678;DHT22;321;48.814;9.132;2023-02-28T09:06:23;1.50;99.90
678;DHT22;321;48.814;9.132;2023-02-28T09:08:49;1.20;99.90
678;DHT22;321;48.814;9.132;2023-02-28T09:11:15;1.40;99.90
678;DHT22;321;48.814;9.132;2023-02-28T09:13:40;1.60;99.90
678;DHT22;321;48.814;9.132;2023-02-28T09:16:08;1.90;99.90
678;DHT22;321;48.814;9.132;2023-02-28T09:18:35;2.00;99.90
678;DHT22;321;48.814;9.132;2023-02-28T09:21:07;2.10;99.90
678;DHT22;321;48.814;9.132;2023-02-28T09:23:33;2.00;99.90
678;DHT22;321;48.814;9.132;2023-02-28T09:25:59;1.90;99.90
678;DHT22;321;48.814;9.132;2023-02-28T09:28:25;2.00;99.90
678;DHT22;321;48.814;9.132;2023-02-28T09:30:52;2.10;99.40
678;DHT22;321;48.814;9.132;2023-02-28T09:33:20;1.90;99.90
678;DHT22;321;48.814;9.132;2023-02-28T09:35:47;2.10;99.90
678;DHT22;321;48.814;9.132;2023-02-28T09:38:12;2.30;99.90
678;DHT22;321;48.814;9.132;2023-02-28T09:40:53;2.20;99.70
678;DHT22;321;48.814;9.132;2023-02-28T09:43:22;2.20;99.60
678;DHT22;321;48.814;9.132;2023-02-28T09:46:03;2.50;99.50
678;DHT22;321;48.814;9.132;2023-02-28T09:48:39;2.60;99.00
678;DHT22;321;48.814;9.132;2023-02-28T09:54:15;2.60;97.60
678;DHT22;321;48.814;9.132;2023-02-28T09:56:45;2.70;97.30
678;DHT22;321;48.814;9.132;2023-02-28T10:02:10;2.30;97.60
678;DHT22;321;48.814;9.132;2023-02-28T10:04:54;2.10;97.80
678;DHT22;321;48.814;9.132;2023-02-28T10:10:03;2.30;98.20
678;DHT22;321;48.814;9.132;2023-02-28T10:12:31;2.70;97.70
678;DHT22;321;48.814;9.132;2023-02-28T10:14:58;2.90;96.80
678;DHT22;321;48.814;9.132;2023-02-28T10:17:39;2.90;96.50
678;DHT22;321;48.814;9.132;2023-02-28T10:20:14;2.70;96.80
678;DHT22;321;48.814;9.132;2023-02-28T10:25:37;2.60;97.10
678;DHT22;321;48.814;9.132;2023-02-28T10:28:15;2.60;97.00
678;DHT22;321;48.814;9.132;2023-02-28T10:30:44;2.80;97.00
678;DHT22;321;48.814;9.132;2023-02-28T10:33:28;2.80;96.50
678;DHT22;321;48.814;9.132;2023-02-28T10:35:57;2.90;96.60
678;DHT22;321;48.814;9.132;2023-02-28T10:38:26;2.90;96.50
678;DHT22;321;48.814;9.132;2023-02-28T10:41:05;3.30;96.40
678;DHT22;321;48.814;9.132;2023-02-28T10:43:32;3.50;95.60
678;DHT22;321;48.814;9.132;2023-02-28T10:48:34;3.80;94.90
678;DHT22;321;48.814;9.132;2023-02-28T10:51:02;3.90;94.60
678;DHT22;321;48.814;9.132;2023-02-28T10:53:52;3.80;94.80
678;DHT22;321;48.814;9.132;2023-02-28T10:56:21;4.30;94.50
678;DHT22;321;48.814;9.132;2023-02-28T11:01:24;4.50;93.40
678;DHT22;321;48.814;9.132;2023-02-28T11:03:51;4.30;93.70
678;DHT22;321;48.814;9.132;2023-02-28T11:06:23;4.40;93.70
678;DHT22;321;48.814;9.132;2023-02-28T11:08:53;4.00;93.70
678;DHT22;321;48.814;9.132;2023-02-28T11:11:21;4.30;93.90
678;DHT22;321;48.814;9.132;2023-02-28T11:13:51;4.20;93.70
678;DHT22;321;48.814;9.132;2023-02-28T11:16:18;4.00;93.70
678;DHT22;321;48.814;9.132;2023-02-28T11:18:51;4.10;93.90
678;DHT22;321;48.814;9.132;2023-02-28T11:21:33;4.10;93.30
678;DHT22;321;48.814;9.132;2023-02-28T11:24:28;4.30;93.90
678;DHT22;321;48.814;9.132;2023-02-28T11:26:56;5.10;93.50
678;DHT22;321;48.814;9.132;2023-02-28T11:29:23;5.00;91.90
678;DHT22;321;48.814;9.132;2023-02-28T11:32:19;5.60;92.80
678;DHT22;321;48.814;9.132;2023-02-28T11:34:46;5.90;91.40
678;DHT22;321;48.814;9.132;2023-02-28T11:37:24;6.00;90.30
678;DHT22;321;48.814;9.132;2023-02-28T11:39:50;5.90;91.10
678;DHT22;321;48.814;9.132;2023-02-28T11:45:45;6.70;88.30
678;DHT22;321;48.814;9.132;2023-02-28T11:48:22;6.90;88.90
678;DHT22;321;48.814;9.132;2023-02-28T11:51:04;6.80;87.20
678;DHT22;321;48.814;9.132;2023-02-28T11:56:32;7.60;86.90
678;DHT22;321;48.814;9.132;2023-02-28T11:59:30;7.40;85.90
678;DHT22;321;48.814;9.132;2023-02-28T12:05:08;7.90;85.40
678;DHT22;321;48.814;9.132;2023-02-28T12:10:32;8.80;82.90
678;DHT22;321;48.814;9.132;2023-02-28T12:16:14;9.10;79.40
678;DHT22;321;48.814;9.132;2023-02-28T12:24:54;9.20;74.70
678;DHT22;321;48.814;9.132;2023-02-28T12:27:23;8.20;77.60
678;DHT22;321;48.814;9.132;2023-02-28T12:29:54;8.10;80.70
678;DHT22;321;48.814;9.132;2023-02-28T12:32:27;8.30;81.00
678;DHT22;321;48.814;9.132;2023-02-28T12:35:01;8.20;79.10
678;DHT22;321;48.814;9.132;2023-02-28T12:37:34;7.80;80.10
678;DHT22;321;48.814;9.132;2023-02-28T12:40:11;7.50;80.00
678;DHT22;321;48.814;9.132;2023-02-28T12:42:43;7.20;81.10
678;DHT22;321;48.814;9.132;2023-02-28T12:45:26;6.60;81.90
678;DHT22;321;48.814;9.132;2023-02-28T12:47:59;6.40;82.80
678;DHT22;321;48.814;9.132;2023-02-28T12:50:26;6.00;83.80
678;DHT22;321;48.814;9.132;2023-02-28T12:53:28;5.90;84.90
678;DHT22;321;48.814;9.132;2023-02-28T13:09:59;5.40;87.30
678;DHT22;321;48.814;9.132;2023-02-28T13:12:26;5.50;87.00
678;DHT22;321;48.814;9.132;2023-02-28T13:17:31;5.40;87.00
678;DHT22;321;48.814;9.132;2023-02-28T13:19:58;5.50;87.80
678;DHT22;321;48.814;9.132;2023-02-28T13:22:43;5.60;87.80
678;DHT22;321;48.814;9.132;2023-02-28T13:27:47;5.60;87.30
678;DHT22;321;48.814;9.132;2023-02-28T13:35:46;5.80;86.60
678;DHT22;321;48.814;9.132;2023-02-28T13:38:17;5.60;85.20
678;DHT22;321;48.814;9.132;2023-02-28T13:40:46;5.60;86.60
678;DHT22;321;48.814;9.132;2023-02-28T13:43:16;5.70;86.50
678;DHT22;321;48.814;9.132;2023-02-28T13:46:06;5.80;87.20
678;DHT22;321;48.814;9.132;2023-02-28T13:48:33;5.80;86.70
678;DHT22;321;48.814;9.132;2023-02-28T13:50:58;5.60;86.40
678;DHT22;321;48.814;9.132;2023-02-28T13:53:39;5.50;87.10
678;DHT22;321;48.814;9.132;2023-02-28T13:56:30;5.60;87.70
678;DHT22;321;48.814;9.132;2023-02-28T13:59:24;5.80;87.60
678;DHT22;321;48.814;9.132;2023-02-28T14:02:13;5.90;86.60
678;DHT22;321;48.814;9.132;2023-02-28T14:07:28;6.10;86.00
678;DHT22;321;48.814;9.132;2023-02-28T14:10:06;6.20;85.30
678;DHT22;321;48.814;9.132;2023-02-28T14:18:00;6.30;85.10
678;DHT22;321;48.814;9.132;2023-02-28T14:20:30;6.30;85.20
678;DHT22;321;48.814;9.132;2023-02-28T14:23:30;6.10;85.10
678;DHT22;321;48.814;9.132;2023-02-28T14:26:10;6.00;86.60
678;DHT22;321;48.814;9.132;2023-02-28T14:28:55;7.10;87.00
678;DHT22;321;48.814;9.132;2023-02-28T14:31:31;6.30;85.60
678;DHT22;321;48.814;9.132;2023-02-28T14:36:36;6.30;85.10
678;DHT22;321;48.814;9.132;2023-02-28T14:41:39;6.00;85.80
678;DHT22;321;48.814;9.132;2023-02-28T14:44:23;6.00;85.70
678;DHT22;321;48.814;9.132;2023-02-28T14:46:54;5.80;85.80
678;DHT22;321;48.814;9.132;2023-02-28T14:49:28;5.80;86.10
678;DHT22;321;48.814;9.132;2023-02-28T14:54:35;5.80;86.60
678;DHT22;321;48.814;9.132;2023-02-28T14:57:01;6.00;86.80
678;DHT22;321;48.814;9.132;2023-02-28T14:59:30;5.70;85.50
678;DHT22;321;48.814;9.132;2023-02-28T15:02:15;5.70;86.50
678;DHT22;321;48.814;9.132;2023-02-28T15:04:41;5.80;87.50
678;DHT22;321;48.814;9.132;2023-02-28T15:07:16;5.90;86.90
678;DHT22;321;48.814;9.132;2023-02-28T15:09:42;5.90;86.70
678;DHT22;321;48.814;9.132;2023-02-28T15:12:13;5.70;86.50
678;DHT22;321;48.814;9.132;2023-02-28T15:14:42;5.90;88.10
678;DHT22;321;48.814;9.132;2023-02-28T15:17:15;6.00;86.80
678;DHT22;321;48.814;9.132;2023-02-28T15:19:48;5.80;87.00
678;DHT22;321;48.814;9.132;2023-02-28T15:22:26;5.70;87.50
678;DHT22;321;48.814;9.132;2023-02-28T15:24:54;5.80;87.90
678;DHT22;321;48.814;9.132;2023-02-28T15:27:23;5.70;87.30
678;DHT22;321;48.814;9.132;2023-02-28T15:29:57;5.70;87.90
678;DHT22;321;48.814;9.132;2023-02-28T15:32:36;5.80;88.10
678;DHT22;321;48.814;9.132;2023-02-28T15:38:01;6.40;88.20
678;DHT22;321;48.814;9.132;2023-02-28T15:43:12;5.80;88.00
678;DHT22;321;48.814;9.132;2023-02-28T15:45:48;5.90;87.50
678;DHT22;321;48.814;9.132;2023-02-28T15:48:22;5.90;88.10
678;DHT22;321;48.814;9.132;2023-02-28T15:50:54;5.90;88.60
678;DHT22;321;48.814;9.132;2023-02-28T15:53:28;5.70;88.60
678;DHT22;321;48.814;9.132;2023-02-28T15:56:00;5.60;89.00
678;DHT22;321;48.814;9.132;2023-02-28T15:58:26;5.80;89.80
678;DHT22;321;48.814;9.132;2023-02-28T16:01:25;6.40;89.40
678;DHT22;321;48.814;9.132;2023-02-28T16:03:54;5.70;88.90
678;DHT22;321;48.814;9.132;2023-02-28T16:08:50;5.80;89.30
678;DHT22;321;48.814;9.132;2023-02-28T16:11:17;5.90;88.60
678;DHT22;321;48.814;9.132;2023-02-28T16:13:42;5.80;87.70
678;DHT22;321;48.814;9.132;2023-02-28T16:16:08;5.70;88.90
678;DHT22;321;48.814;9.132;2023-02-28T16:18:33;5.60;88.80
678;DHT22;321;48.814;9.132;2023-02-28T16:20:59;5.60;89.30
678;DHT22;321;48.814;9.132;2023-02-28T16:23:24;5.70;88.70
678;DHT22;321;48.814;9.132;2023-02-28T16:40:34;5.10;99.90
678;DHT22;321;48.814;9.132;2023-02-28T16:43:08;5.10;96.60
678;DHT22;321;48.814;9.132;2023-02-28T16:50:29;4.90;96.50
678;DHT22;321;48.814;9.132;2023-02-28T16:52:56;4.90;90.70
678;DHT22;321;48.814;9.132;2023-02-28T16:55:25;4.80;90.90
678;DHT22;321;48.814;9.132;2023-02-28T16:57:53;4.80;96.90
678;DHT22;321;48.814;9.132;2023-02-28T17:05:12;4.70;91.00
678;DHT22;321;48.814;9.132;2023-02-28T17:07:39;4.80;91.10
678;DHT22;321;48.814;9.132;2023-02-28T17:10:20;4.90;92.20
678;DHT22;321;48.814;9.132;2023-02-28T17:17:42;4.90;94.00
678;DHT22;321;48.814;9.132;2023-02-28T17:20:21;4.60;99.90
678;DHT22;321;48.814;9.132;2023-02-28T17:52:08;4.10;93.00
678;DHT22;321;48.814;9.132;2023-02-28T17:54:33;4.10;92.90
678;DHT22;321;48.814;9.132;2023-02-28T17:56:59;4.00;93.10
678;DHT22;321;48.814;9.132;2023-02-28T17:59:25;3.80;93.40
678;DHT22;321;48.814;9.132;2023-02-28T18:01:50;3.90;93.40
678;DHT22;321;48.814;9.132;2023-02-28T18:04:16;3.80;93.60
678;DHT22;321;48.814;9.132;2023-02-28T18:06:43;3.90;93.60
678;DHT22;321;48.814;9.132;2023-02-28T18:09:14;4.00;93.30
678;DHT22;321;48.814;9.132;2023-02-28T18:11:40;4.00;93.30
678;DHT22;321;48.814;9.132;2023-02-28T18:14:13;4.10;93.30
678;DHT22;321;48.814;9.132;2023-02-28T18:16:39;4.00;93.30
678;DHT22;321;48.814;9.132;2023-02-28T18:19:05;4.00;93.40
678;DHT22;321;48.814;9.132;2023-02-28T18:21:31;4.00;93.40
678;DHT22;321;48.814;9.132;2023-02-28T18:23:57;4.10;93.60
678;DHT22;321;48.814;9.132;2023-02-28T18:26:23;4.10;93.40
678;DHT22;321;48.814;9.132;2023-02-28T18:28:48;4.20;93.20
678;DHT22;321;48.814;9.132;2023-02-28T18:31:17;4.20;93.40
678;DHT22;321;48.814;9.132;2023-02-28T18:33:46;4.10;93.20
678;DHT22;321;48.814;9.132;2023-02-28T18:36:12;4.10;93.60
678;DHT22;321;48.814;9.132;2023-02-28T18:38:38;3.80;93.10
678;DHT22;321;48.814;9.132;2023-02-28T18:41:05;3.80;93.70
678;DHT22;321;48.814;9.132;2023-02-28T18:43:33;3.90;93.60
678;DHT22;321;48.814;9.132;2023-02-28T18:46:04;4.10;93.70
678;DHT22;321;48.814;9.132;2023-02-28T18:48:30;4.00;93.30
678;DHT22;321;48.814;9.132;2023-02-28T18:50:56;4.00;93.80
678;DHT22;321;48.814;9.132;2023-02-28T18:53:21;3.80;93.20
678;DHT22;321;48.814;9.132;2023-02-28T18:55:48;3.90;93.80
678;DHT22;321;48.814;9.132;2023-02-28T18:58:13;4.00;93.40
678;DHT22;321;48.814;9.132;2023-02-28T19:00:39;3.90;93.70
678;DHT22;321;48.814;9.132;2023-02-28T19:03:05;4.00;93.60
678;DHT22;321;48.814;9.132;2023-02-28T19:05:31;4.00;93.50
678;DHT22;321;48.814;9.132;2023-02-28T19:07:59;4.10;93.30
678;DHT22;321;48.814;9.132;2023-02-28T19:10:25;3.90;93.30
678;DHT22;321;48.814;9.132;2023-02-28T19:12:51;3.80;93.50
678;DHT22;321;48.814;9.132;2023-02-28T19:15:17;3.70;93.90
678;DHT22;321;48.814;9.132;2023-02-28T19:17:42;3.90;93.80
678;DHT22;321;48.814;9.132;2023-02-28T19:20:11;4.00;93.70
678;DHT22;321;48.814;9.132;2023-02-28T19:22:37;3.90;93.50
678;DHT22;321;48.814;9.132;2023-02-28T19:25:04;3.80;93.50
678;DHT22;321;48.814;9.132;2023-02-28T19:27:30;3.80;93.60
678;DHT22;321;48.814;9.132;2023-02-28T19:32:33;3.90;93.80
678;DHT22;321;48.814;9.132;2023-02-28T19:35:05;4.00;93.70
678;DHT22;321;48.814;9.132;2023-02-28T19:37:31;3.90;94.00
678;DHT22;321;48.814;9.132;2023-02-28T19:40:06;3.90;94.20
678;DHT22;321;48.814;9.132;2023-02-28T19:42:33;3.60;94.50
678;DHT22;321;48.814;9.132;2023-02-28T19:45:07;3.50;94.80
678;DHT22;321;48.814;9.132;2023-02-28T19:47:34;3.30;95.30
678;DHT22;321;48.814;9.132;2023-02-28T19:52:25;3.30;95.50
678;DHT22;321;48.814;9.132;2023-02-28T19:54:54;3.30;95.50
678;DHT22;321;48.814;9.132;2023-02-28T19:57:19;3.10;95.50
678;DHT22;321;48.814;9.132;2023-02-28T19:59:45;2.90;95.90
678;DHT22;321;48.814;9.132;2023-02-28T20:02:19;2.90;96.40
678;DHT22;321;48.814;9.132;2023-02-28T20:04:49;2.80;97.00
678;DHT22;321;48.814;9.132;2023-02-28T20:07:18;2.80;96.90
678;DHT22;321;48.814;9.132;2023-02-28T20:09:47;2.80;96.70
678;DHT22;321;48.814;9.132;2023-02-28T20:12:12;2.90;97.10
678;DHT22;321;48.814;9.132;2023-02-28T20:14:38;2.70;96.90